sensor_id;sensor_type;location;lat;lon;timestamp;pressure;altitude;pressure_sealevel;temperature;humidity
18022;BME280;9136;48.822;7.966;2023-02-18T00:00:12;101272.25;;;11.38;100.00
18022;BME280;9136;48.822;7.966;2023-02-18T00:03:00;101272.03;;;11.51;100.00
18022;BME280;9136;48.822;7.966;2023-02-18T00:05:48;101288.78;;;11.45;100.00
18022;BME280;9136;48.822;7.966;2023-02-18T00:08:36;101284.34;;;11.50;100.00
18022;BME280;9136;48.822;7.966;2023-02-18T00:11:24;101298.31;;;11.52;100.00
18022;BME280;9136;48.822;7.966;2023-02-18T00:14:14;101307.97;;;11.52;100.00
18022;BME280;9136;48.822;7.966;2023-02-18T00:17:03;101302.88;;;11.42;100.00
18022;BME280;9136;48.822;7.966;2023-02-18T00:19:51;101278.59;;;11.28;100.00
18022;BME280;9136;48.822;7.966;2023-02-18T00:22:39;101273.25;;;11.33;100.00
18022;BME280;9136;48.822;7.966;2023-02-18T00:25:28;101261.84;;;11.34;100.00
18022;BME280;9136;48.822;7.966;2023-02-18T00:28:16;101265.44;;;11.30;100.00
18022;BME280;9136;48.822;7.966;2023-02-18T00:31:08;101288.91;;;11.40;100.00
18022;BME280;9136;48.822;7.966;2023-02-18T00:33:59;101280.22;;;11.35;100.00
18022;BME280;9136;48.822;7.966;2023-02-18T00:36:46;101249.81;;;11.19;100.00
18022;BME280;9136;48.822;7.966;2023-02-18T00:39:34;101274.97;;;11.34;100.00
18022;BME280;9136;48.822;7.966;2023-02-18T00:42:22;101263.56;;;11.35;100.00
18022;BME280;9136;48.822;7.966;2023-02-18T00:45:10;101273.28;;;11.31;100.00
18022;BME280;9136;48.822;7.966;2023-02-18T00:47:58;101258.59;;;11.20;100.00
18022;BME280;9136;48.822;7.966;2023-02-18T00:50:47;101258.50;;;11.24;100.00
18022;BME280;9136;48.822;7.966;2023-02-18T00:53:36;101238.50;;;11.15;100.00
18022;BME280;9136;48.822;7.966;2023-02-18T00:56:23;101267.25;;;11.25;100.00
18022;BME280;9136;48.822;7.966;2023-02-18T00:59:11;101233.41;;;11.06;100.00
18022;BME280;9136;48.822;7.966;2023-02-18T01:01:59;101254.19;;;11.22;100.00
18022;BME280;9136;48.822;7.966;2023-02-18T01:04:47;101256.88;;;11.17;100.00
18022;BME280;9136;48.822;7.966;2023-02-18T01:07:37;101254.34;;;11.12;100.00
18022;BME280;9136;48.822;7.966;2023-02-18T01:10:25;101260.31;;;11.22;100.00
18022;BME280;9136;48.822;7.966;2023-02-18T01:13:13;101264.56;;;11.28;100.00
18022;BME280;9136;48.822;7.966;2023-02-18T01:16:03;101224.41;;;11.18;100.00
18022;BME280;9136;48.822;7.966;2023-02-18T01:18:51;101255.84;;;11.26;100.00
18022;BME280;9136;48.822;7.966;2023-02-18T01:21:39;101236.63;;;11.22;100.00
18022;BME280;9136;48.822;7.966;2023-02-18T01:24:28;101237.53;;;11.21;100.00
18022;BME280;9136;48.822;7.966;2023-02-18T01:27:16;101258.19;;;11.41;100.00
18022;BME280;9136;48.822;7.966;2023-02-18T01:30:06;101240.69;;;11.40;100.00
18022;BME280;9136;48.822;7.966;2023-02-18T01:32:54;101239.78;;;11.41;100.00
18022;BME280;9136;48.822;7.966;2023-02-18T01:35:43;101232.84;;;11.35;100.00
18022;BME280;9136;48.822;7.966;2023-02-18T01:38:30;101224.16;;;11.32;100.00
18022;BME280;9136;48.822;7.966;2023-02-18T01:41:20;101225.09;;;11.28;100.00
18022;BME280;9136;48.822;7.966;2023-02-18T01:44:13;101219.75;;;11.34;100.00
18022;BME280;9136;48.822;7.966;2023-02-18T01:47:02;101236.38;;;11.34;100.00
18022;BME280;9136;48.822;7.966;2023-02-18T01:49:51;101243.63;;;11.23;100.00
18022;BME280;9136;48.822;7.966;2023-02-18T01:52:40;101241.94;;;11.21;100.00
18022;BME280;9136;48.822;7.966;2023-02-18T01:55:28;101221.06;;;11.11;100.00
18022;BME280;9136;48.822;7.966;2023-02-18T01:58:17;101234.94;;;11.20;100.00
18022;BME280;9136;48.822;7.966;2023-02-18T02:01:07;101233.41;;;11.06;100.00
18022;BME280;9136;48.822;7.966;2023-02-18T02:03:56;101243.84;;;11.12;100.00
18022;BME280;9136;48.822;7.966;2023-02-18T02:06:44;101249.97;;;11.13;100.00
18022;BME280;9136;48.822;7.966;2023-02-18T02:09:33;101235.22;;;11.04;100.00
18022;BME280;9136;48.822;7.966;2023-02-18T02:12:34;101239.66;;;11.01;100.00
18022;BME280;9136;48.822;7.966;2023-02-18T02:15:32;101246.63;;;11.03;100.00
18022;BME280;9136;48.822;7.966;2023-02-18T02:18:36;101247.56;;;11.01;100.00
18022;BME280;9136;48.822;7.966;2023-02-18T02:21:58;101247.66;;;10.95;100.00
18022;BME280;9136;48.822;7.966;2023-02-18T02:25:01;101245.03;;;10.95;100.00
18022;BME280;9136;48.822;7.966;2023-02-18T02:28:12;101231.88;;;10.95;100.00
18022;BME280;9136;48.822;7.966;2023-02-18T02:31:44;101239.03;;;10.86;100.00
18022;BME280;9136;48.822;7.966;2023-02-18T02:34:48;101232.91;;;10.86;100.00
18022;BME280;9136;48.822;7.966;2023-02-18T02:37:41;101230.44;;;10.77;100.00
18022;BME280;9136;48.822;7.966;2023-02-18T02:40:35;101234.78;;;10.79;100.00
18022;BME280;9136;48.822;7.966;2023-02-18T02:43:32;101238.25;;;10.81;100.00
18022;BME280;9136;48.822;7.966;2023-02-18T02:46:28;101228.50;;;10.88;100.00
18022;BME280;9136;48.822;7.966;2023-02-18T02:49:27;101225.91;;;10.85;100.00
18022;BME280;9136;48.822;7.966;2023-02-18T02:52:21;101204.34;;;10.66;100.00
18022;BME280;9136;48.822;7.966;2023-02-18T02:55:11;101218.38;;;10.65;100.00
18022;BME280;9136;48.822;7.966;2023-02-18T02:57:59;101190.47;;;10.58;100.00
18022;BME280;9136;48.822;7.966;2023-02-18T03:00:58;101197.38;;;10.65;100.00
18022;BME280;9136;48.822;7.966;2023-02-18T03:04:05;101197.19;;;10.74;100.00
18022;BME280;9136;48.822;7.966;2023-02-18T03:07:10;101214.78;;;10.69;100.00
18022;BME280;9136;48.822;7.966;2023-02-18T03:10:15;101205.09;;;10.74;100.00
18022;BME280;9136;48.822;7.966;2023-02-18T03:13:09;101196.22;;;10.80;100.00
18022;BME280;9136;48.822;7.966;2023-02-18T03:16:10;101182.34;;;10.73;100.00
18022;BME280;9136;48.822;7.966;2023-02-18T03:19:04;101166.66;;;10.67;100.00
18022;BME280;9136;48.822;7.966;2023-02-18T03:21:57;101158.13;;;10.54;100.00
18022;BME280;9136;48.822;7.966;2023-02-18T03:24:49;101167.66;;;10.60;100.00
18022;BME280;9136;48.822;7.966;2023-02-18T03:27:43;101180.94;;;10.52;100.00
18022;BME280;9136;48.822;7.966;2023-02-18T03:30:36;101154.94;;;10.37;100.00
18022;BME280;9136;48.822;7.966;2023-02-18T03:33:30;101161.88;;;10.40;100.00
18022;BME280;9136;48.822;7.966;2023-02-18T03:36:21;101161.91;;;10.38;100.00
18022;BME280;9136;48.822;7.966;2023-02-18T03:39:12;101141.22;;;10.17;100.00
18022;BME280;9136;48.822;7.966;2023-02-18T03:42:01;101164.78;;;10.23;100.00
18022;BME280;9136;48.822;7.966;2023-02-18T03:44:51;101157.03;;;10.15;100.00
18022;BME280;9136;48.822;7.966;2023-02-18T03:47:39;101153.56;;;10.12;100.00
18022;BME280;9136;48.822;7.966;2023-02-18T03:50:27;101167.50;;;10.17;100.00
18022;BME280;9136;48.822;7.966;2023-02-18T03:53:15;101171.09;;;10.10;100.00
18022;BME280;9136;48.822;7.966;2023-02-18T03:56:03;101176.34;;;10.10;100.00
18022;BME280;9136;48.822;7.966;2023-02-18T03:58:51;101173.75;;;10.08;100.00
18022;BME280;9136;48.822;7.966;2023-02-18T04:01:41;101157.19;;;10.04;100.00
18022;BME280;9136;48.822;7.966;2023-02-18T04:04:29;101165.06;;;10.03;100.00
18022;BME280;9136;48.822;7.966;2023-02-18T04:07:17;101151.16;;;9.98;100.00
18022;BME280;9136;48.822;7.966;2023-02-18T04:10:06;101148.50;;;9.99;100.00
18022;BME280;9136;48.822;7.966;2023-02-18T04:12:54;101157.19;;;10.04;100.00
18022;BME280;9136;48.822;7.966;2023-02-18T04:15:42;101151.06;;;10.04;100.00
18022;BME280;9136;48.822;7.966;2023-02-18T04:18:32;101144.22;;;9.92;100.00
18022;BME280;9136;48.822;7.966;2023-02-18T04:21:20;101149.31;;;10.03;100.00
18022;BME280;9136;48.822;7.966;2023-02-18T04:24:08;101166.72;;;10.10;100.00
18022;BME280;9136;48.822;7.966;2023-02-18T04:26:56;101144.94;;;10.05;100.00
18022;BME280;9136;48.822;7.966;2023-02-18T04:29:45;101151.78;;;10.12;100.00
18022;BME280;9136;48.822;7.966;2023-02-18T04:32:33;101139.69;;;10.05;100.00
18022;BME280;9136;48.822;7.966;2023-02-18T04:35:22;101159.59;;;10.18;100.00
18022;BME280;9136;48.822;7.966;2023-02-18T04:38:11;101151.75;;;10.17;100.00
18022;BME280;9136;48.822;7.966;2023-02-18T04:40:58;101163.03;;;10.25;100.00
18022;BME280;9136;48.822;7.966;2023-02-18T04:43:46;101153.41;;;10.21;100.00
18022;BME280;9136;48.822;7.966;2023-02-18T04:46:35;101155.06;;;10.29;100.00
18022;BME280;9136;48.822;7.966;2023-02-18T04:49:23;101132.34;;;10.27;100.00
18022;BME280;9136;48.822;7.966;2023-02-18T04:52:13;101166.25;;;10.42;100.00
18022;BME280;9136;48.822;7.966;2023-02-18T04:55:02;101165.25;;;10.48;100.00
18022;BME280;9136;48.822;7.966;2023-02-18T04:57:50;101124.25;;;10.39;100.00
18022;BME280;9136;48.822;7.966;2023-02-18T05:00:38;101124.19;;;10.44;100.00
18022;BME280;9136;48.822;7.966;2023-02-18T05:03:26;101130.19;;;10.49;100.00
18022;BME280;9136;48.822;7.966;2023-02-18T05:06:13;101136.34;;;10.48;100.00
18022;BME280;9136;48.822;7.966;2023-02-18T05:09:03;101123.16;;;10.51;100.00
18022;BME280;9136;48.822;7.966;2023-02-18T05:11:51;101121.38;;;10.51;100.00
18022;BME280;9136;48.822;7.966;2023-02-18T05:14:40;101124.09;;;10.48;100.00
18022;BME280;9136;48.822;7.966;2023-02-18T05:17:28;101139.66;;;10.59;100.00
18022;BME280;9136;48.822;7.966;2023-02-18T05:20:16;101130.88;;;10.60;100.00
18022;BME280;9136;48.822;7.966;2023-02-18T05:23:04;101108.16;;;10.57;100.00
18022;BME280;9136;48.822;7.966;2023-02-18T05:25:53;101109.16;;;10.52;100.00
18022;BME280;9136;48.822;7.966;2023-02-18T05:28:41;101120.31;;;10.63;100.00
18022;BME280;9136;48.822;7.966;2023-02-18T05:31:29;101117.53;;;10.71;100.00
18022;BME280;9136;48.822;7.966;2023-02-18T05:34:17;101116.63;;;10.73;100.00
18022;BME280;9136;48.822;7.966;2023-02-18T05:37:05;101128.69;;;10.83;100.00
18022;BME280;9136;48.822;7.966;2023-02-18T05:39:53;101119.06;;;10.84;100.00
18022;BME280;9136;48.822;7.966;2023-02-18T05:42:43;101098.28;;;10.70;100.00
18022;BME280;9136;48.822;7.966;2023-02-18T05:45:31;101115.53;;;10.85;100.00
18022;BME280;9136;48.822;7.966;2023-02-18T05:48:19;101104.22;;;10.80;100.00
18022;BME280;9136;48.822;7.966;2023-02-18T05:51:07;101115.63;;;10.79;100.00
18022;BME280;9136;48.822;7.966;2023-02-18T05:53:54;101105.25;;;10.73;100.00
18022;BME280;9136;48.822;7.966;2023-02-18T05:56:42;101109.31;;;10.87;100.00
18022;BME280;9136;48.822;7.966;2023-02-18T05:59:32;101102.34;;;10.86;100.00
18022;BME280;9136;48.822;7.966;2023-02-18T06:02:20;101102.41;;;10.83;100.00
18022;BME280;9136;48.822;7.966;2023-02-18T06:05:08;101109.28;;;10.91;100.00
18022;BME280;9136;48.822;7.966;2023-02-18T06:07:56;101099.00;;;10.78;100.00
18022;BME280;9136;48.822;7.966;2023-02-18T06:10:44;101120.63;;;10.93;100.00
18022;BME280;9136;48.822;7.966;2023-02-18T06:13:32;101100.53;;;10.88;100.00
18022;BME280;9136;48.822;7.966;2023-02-18T06:16:21;101094.53;;;10.83;100.00
18022;BME280;9136;48.822;7.966;2023-02-18T06:19:10;101111.69;;;11.01;100.00
18022;BME280;9136;48.822;7.966;2023-02-18T06:21:57;101084.53;;;11.01;100.00
18022;BME280;9136;48.822;7.966;2023-02-18T06:24:45;101097.69;;;10.99;100.00
18022;BME280;9136;48.822;7.966;2023-02-18T06:27:34;101104.59;;;11.05;100.00
18022;BME280;9136;48.822;7.966;2023-02-18T06:30:21;101107.16;;;11.08;100.00
18022;BME280;9136;48.822;7.966;2023-02-18T06:33:11;101115.00;;;11.11;100.00
18022;BME280;9136;48.822;7.966;2023-02-18T06:36:01;101124.41;;;11.23;100.00
18022;BME280;9136;48.822;7.966;2023-02-18T06:38:52;101122.53;;;11.28;100.00
18022;BME280;9136;48.822;7.966;2023-02-18T06:41:42;101114.88;;;11.17;100.00
18022;BME280;9136;48.822;7.966;2023-02-18T06:44:30;101118.34;;;11.17;100.00
18022;BME280;9136;48.822;7.966;2023-02-18T06:47:18;101127.91;;;11.23;100.00
18022;BME280;9136;48.822;7.966;2023-02-18T06:50:08;101112.00;;;11.29;100.00
18022;BME280;9136;48.822;7.966;2023-02-18T06:52:56;101130.97;;;11.43;100.00
18022;BME280;9136;48.822;7.966;2023-02-18T06:55:45;101130.84;;;11.48;100.00
18022;BME280;9136;48.822;7.966;2023-02-18T06:58:33;101130.69;;;11.56;100.00
18022;BME280;9136;48.822;7.966;2023-02-18T07:01:21;101120.38;;;11.46;100.00
18022;BME280;9136;48.822;7.966;2023-02-18T07:04:09;101126.22;;;11.61;100.00
18022;BME280;9136;48.822;7.966;2023-02-18T07:06:59;101139.16;;;11.70;100.00
18022;BME280;9136;48.822;7.966;2023-02-18T07:09:47;101134.78;;;11.69;100.00
18022;BME280;9136;48.822;7.966;2023-02-18T07:12:35;101129.53;;;11.67;100.00
18022;BME280;9136;48.822;7.966;2023-02-18T07:15:23;101134.59;;;11.78;100.00
18022;BME280;9136;48.822;7.966;2023-02-18T07:18:13;101120.56;;;11.78;100.00
18022;BME280;9136;48.822;7.966;2023-02-18T07:21:01;101094.31;;;11.73;100.00
18022;BME280;9136;48.822;7.966;2023-02-18T07:23:51;101088.31;;;11.68;100.00
18022;BME280;9136;48.822;7.966;2023-02-18T07:26:38;101095.16;;;11.75;100.00
18022;BME280;9136;48.822;7.966;2023-02-18T07:29:27;101115.91;;;11.90;100.00
18022;BME280;9136;48.822;7.966;2023-02-18T07:32:16;101102.91;;;11.83;100.00
18022;BME280;9136;48.822;7.966;2023-02-18T07:35:05;101094.19;;;11.81;100.00
18022;BME280;9136;48.822;7.966;2023-02-18T07:37:53;101090.16;;;12.01;100.00
18022;BME280;9136;48.822;7.966;2023-02-18T07:40:45;101111.78;;;12.14;100.00
18022;BME280;9136;48.822;7.966;2023-02-18T07:43:33;101103.88;;;12.14;100.00
18022;BME280;9136;48.822;7.966;2023-02-18T07:46:21;101096.13;;;12.10;100.00
18022;BME280;9136;48.822;7.966;2023-02-18T07:49:10;101085.44;;;12.14;100.00
18022;BME280;9136;48.822;7.966;2023-02-18T07:51:57;101116.81;;;12.23;100.00
18022;BME280;9136;48.822;7.966;2023-02-18T07:54:46;101107.25;;;12.21;100.00
18022;BME280;9136;48.822;7.966;2023-02-18T07:57:35;101095.13;;;12.14;100.00
18022;BME280;9136;48.822;7.966;2023-02-18T08:00:42;101106.38;;;12.20;100.00
18022;BME280;9136;48.822;7.966;2023-02-18T08:03:31;101110.66;;;12.24;100.00
18022;BME280;9136;48.822;7.966;2023-02-18T08:06:21;101094.22;;;12.15;100.00
18022;BME280;9136;48.822;7.966;2023-02-18T08:09:12;101114.09;;;12.28;100.00
18022;BME280;9136;48.822;7.966;2023-02-18T08:12:00;101101.66;;;12.33;100.00
18022;BME280;9136;48.822;7.966;2023-02-18T08:14:49;101083.44;;;12.24;100.00
18022;BME280;9136;48.822;7.966;2023-02-18T08:17:37;101113.00;;;12.37;100.00
18022;BME280;9136;48.822;7.966;2023-02-18T08:20:26;101112.16;;;12.35;100.00
18022;BME280;9136;48.822;7.966;2023-02-18T08:23:14;101106.00;;;12.34;100.00
18022;BME280;9136;48.822;7.966;2023-02-18T08:26:03;101087.88;;;12.22;100.00
18022;BME280;9136;48.822;7.966;2023-02-18T08:28:51;101119.03;;;12.40;100.00
18022;BME280;9136;48.822;7.966;2023-02-18T08:31:40;101098.25;;;12.29;100.00
18022;BME280;9136;48.822;7.966;2023-02-18T08:34:28;101122.72;;;12.33;100.00
18022;BME280;9136;48.822;7.966;2023-02-18T08:37:16;101103.41;;;12.32;100.00
18022;BME280;9136;48.822;7.966;2023-02-18T08:40:06;101125.31;;;12.35;100.00
18022;BME280;9136;48.822;7.966;2023-02-18T08:42:54;101104.28;;;12.33;100.00
18022;BME280;9136;48.822;7.966;2023-02-18T08:45:42;101121.75;;;12.37;100.00
18022;BME280;9136;48.822;7.966;2023-02-18T08:48:32;101120.81;;;12.40;100.00
18022;BME280;9136;48.822;7.966;2023-02-18T08:51:21;101124.59;;;12.29;100.00
18022;BME280;9136;48.822;7.966;2023-02-18T08:54:09;101125.25;;;12.38;100.00
18022;BME280;9136;48.822;7.966;2023-02-18T08:56:57;101115.72;;;12.32;100.00
18022;BME280;9136;48.822;7.966;2023-02-18T08:59:45;101125.41;;;12.31;100.00
18022;BME280;9136;48.822;7.966;2023-02-18T09:02:33;101116.56;;;12.34;100.00
18022;BME280;9136;48.822;7.966;2023-02-18T09:05:23;101108.47;;;12.42;100.00
18022;BME280;9136;48.822;7.966;2023-02-18T09:08:10;101127.19;;;12.64;100.00
18022;BME280;9136;48.822;7.966;2023-02-18T09:11:00;101101.03;;;12.57;100.00
18022;BME280;9136;48.822;7.966;2023-02-18T09:13:49;101107.56;;;12.75;100.00
18022;BME280;9136;48.822;7.966;2023-02-18T09:16:38;101110.88;;;12.82;100.00
18022;BME280;9136;48.822;7.966;2023-02-18T09:19:26;101087.09;;;12.85;100.00
18022;BME280;9136;48.822;7.966;2023-02-18T09:22:17;101101.28;;;13.10;100.00
18022;BME280;9136;48.822;7.966;2023-02-18T09:25:06;101091.22;;;13.25;100.00
18022;BME280;9136;48.822;7.966;2023-02-18T09:27:54;101075.91;;;13.06;100.00
18022;BME280;9136;48.822;7.966;2023-02-18T09:30:41;101075.91;;;13.06;100.00
18022;BME280;9136;48.822;7.966;2023-02-18T09:33:29;101082.75;;;13.13;100.00
18022;BME280;9136;48.822;7.966;2023-02-18T09:36:18;101076.38;;;13.21;100.00
18022;BME280;9136;48.822;7.966;2023-02-18T09:39:07;101089.41;;;13.27;100.00
18022;BME280;9136;48.822;7.966;2023-02-18T09:42:00;101072.13;;;13.15;100.00
18022;BME280;9136;48.822;7.966;2023-02-18T09:44:51;101090.41;;;13.23;100.00
18022;BME280;9136;48.822;7.966;2023-02-18T09:47:42;101089.00;;;13.09;100.00
18022;BME280;9136;48.822;7.966;2023-02-18T09:50:32;101107.41;;;13.12;100.00
18022;BME280;9136;48.822;7.966;2023-02-18T09:53:23;101102.25;;;13.08;100.00
18022;BME280;9136;48.822;7.966;2023-02-18T09:56:14;101103.31;;;13.01;100.00
18022;BME280;9136;48.822;7.966;2023-02-18T09:59:05;101100.69;;;13.01;100.00
18022;BME280;9136;48.822;7.966;2023-02-18T10:01:59;101108.09;;;13.19;100.00
18022;BME280;9136;48.822;7.966;2023-02-18T10:04:48;101095.66;;;13.24;100.00
18022;BME280;9136;48.822;7.966;2023-02-18T10:07:38;101108.78;;;13.26;100.00
18022;BME280;9136;48.822;7.966;2023-02-18T10:10:35;101099.91;;;13.28;100.00
18022;BME280;9136;48.822;7.966;2023-02-18T10:13:28;101108.63;;;13.30;100.00
18022;BME280;9136;48.822;7.966;2023-02-18T10:16:17;101105.84;;;13.36;100.00
18022;BME280;9136;48.822;7.966;2023-02-18T10:19:19;101079.09;;;13.47;100.00
18022;BME280;9136;48.822;7.966;2023-02-18T10:22:11;101071.06;;;13.52;100.00
18022;BME280;9136;48.822;7.966;2023-02-18T10:25:01;101080.38;;;13.63;100.00
18022;BME280;9136;48.822;7.966;2023-02-18T10:27:51;101077.13;;;13.82;100.00
18022;BME280;9136;48.822;7.966;2023-02-18T10:30:42;101080.41;;;13.90;100.00
18022;BME280;9136;48.822;7.966;2023-02-18T10:33:35;101086.44;;;13.93;100.00
18022;BME280;9136;48.822;7.966;2023-02-18T10:36:25;101086.84;;;14.08;100.00
18022;BME280;9136;48.822;7.966;2023-02-18T10:39:37;101094.75;;;14.08;100.00
18022;BME280;9136;48.822;7.966;2023-02-18T10:42:40;101096.47;;;14.10;100.00
18022;BME280;9136;48.822;7.966;2023-02-18T10:45:37;101090.38;;;14.07;100.00
18022;BME280;9136;48.822;7.966;2023-02-18T10:48:54;101075.31;;;14.10;100.00
18022;BME280;9136;48.822;7.966;2023-02-18T10:51:51;101077.34;;;14.28;100.00
18022;BME280;9136;48.822;7.966;2023-02-18T10:54:52;101076.25;;;14.34;100.00
18022;BME280;9136;48.822;7.966;2023-02-18T10:57:48;101060.00;;;14.20;100.00
18022;BME280;9136;48.822;7.966;2023-02-18T11:00:37;101057.31;;;13.95;100.00
18022;BME280;9136;48.822;7.966;2023-02-18T11:03:37;101083.56;;;14.26;100.00
18022;BME280;9136;48.822;7.966;2023-02-18T11:06:30;101080.31;;;14.18;100.00
18022;BME280;9136;48.822;7.966;2023-02-18T11:09:39;101089.03;;;14.21;100.00
18022;BME280;9136;48.822;7.966;2023-02-18T11:12:30;101061.78;;;14.19;100.00
18022;BME280;9136;48.822;7.966;2023-02-18T11:15:23;101060.44;;;14.32;100.00
18022;BME280;9136;48.822;7.966;2023-02-18T11:18:19;101047.34;;;15.03;100.00
18022;BME280;9136;48.822;7.966;2023-02-18T11:21:24;101041.63;;;14.67;100.00
18022;BME280;9136;48.822;7.966;2023-02-18T11:24:19;101075.66;;;14.26;100.00
18022;BME280;9136;48.822;7.966;2023-02-18T11:27:08;101044.91;;;14.23;100.00
18022;BME280;9136;48.822;7.966;2023-02-18T11:30:00;101043.94;;;14.26;100.00
18022;BME280;9136;48.822;7.966;2023-02-18T11:32:53;101048.09;;;14.33;100.00
18022;BME280;9136;48.822;7.966;2023-02-18T11:35:48;101058.25;;;14.45;100.00
18022;BME280;9136;48.822;7.966;2023-02-18T11:38:41;101058.06;;;14.51;100.00
18022;BME280;9136;48.822;7.966;2023-02-18T11:41:35;101057.88;;;14.56;100.00
18022;BME280;9136;48.822;7.966;2023-02-18T11:44:27;101031.84;;;14.44;100.00
18022;BME280;9136;48.822;7.966;2023-02-18T11:47:21;101068.44;;;14.56;100.00
18022;BME280;9136;48.822;7.966;2023-02-18T11:50:20;101038.28;;;14.62;100.00
18022;BME280;9136;48.822;7.966;2023-02-18T11:53:26;101050.53;;;14.39;100.00
18022;BME280;9136;48.822;7.966;2023-02-18T11:56:17;101055.41;;;14.51;100.00
18022;BME280;9136;48.822;7.966;2023-02-18T11:59:09;101048.34;;;14.52;100.00
18022;BME280;9136;48.822;7.966;2023-02-18T12:02:02;101038.91;;;14.45;100.00
18022;BME280;9136;48.822;7.966;2023-02-18T12:04:57;101029.25;;;14.42;100.00
18022;BME280;9136;48.822;7.966;2023-02-18T12:07:49;101032.69;;;14.46;100.00
18022;BME280;9136;48.822;7.966;2023-02-18T12:10:41;101064.56;;;14.41;100.00
18022;BME280;9136;48.822;7.966;2023-02-18T12:13:33;101038.50;;;14.30;100.00
18022;BME280;9136;48.822;7.966;2023-02-18T12:16:31;101044.16;;;14.20;100.00
18022;BME280;9136;48.822;7.966;2023-02-18T12:19:36;101058.59;;;14.35;100.00
18022;BME280;9136;48.822;7.966;2023-02-18T12:22:33;101026.59;;;14.19;100.00
18022;BME280;9136;48.822;7.966;2023-02-18T12:25:34;101038.88;;;14.20;100.00
18022;BME280;9136;48.822;7.966;2023-02-18T12:28:33;101046.03;;;14.16;100.00
18022;BME280;9136;48.822;7.966;2023-02-18T12:31:43;101043.59;;;14.10;100.00
18022;BME280;9136;48.822;7.966;2023-02-18T12:34:42;101039.13;;;14.12;100.00
18022;BME280;9136;48.822;7.966;2023-02-18T12:37:48;101018.72;;;13.91;100.00
18022;BME280;9136;48.822;7.966;2023-02-18T12:40:56;101004.84;;;13.84;100.00
18022;BME280;9136;48.822;7.966;2023-02-18T12:43:55;101006.75;;;13.81;100.00
18022;BME280;9136;48.822;7.966;2023-02-18T12:47:03;101016.59;;;13.75;100.00
18022;BME280;9136;48.822;7.966;2023-02-18T12:50:12;101003.56;;;13.69;100.00
18022;BME280;9136;48.822;7.966;2023-02-18T12:53:19;101002.94;;;13.63;100.00
18022;BME280;9136;48.822;7.966;2023-02-18T13:03:25;101010.09;;;13.31;100.00
18022;BME280;9136;48.822;7.966;2023-02-18T13:06:47;101043.00;;;13.48;100.00
18022;BME280;9136;48.822;7.966;2023-02-18T13:09:52;101018.25;;;13.52;100.00
18022;BME280;9136;48.822;7.966;2023-02-18T13:12:47;101008.09;;;13.66;100.00
18022;BME280;9136;48.822;7.966;2023-02-18T13:15:40;101030.53;;;13.81;100.00
18022;BME280;9136;48.822;7.966;2023-02-18T13:18:33;101018.69;;;13.92;100.00
18022;BME280;9136;48.822;7.966;2023-02-18T13:21:22;101010.53;;;13.98;100.00
18022;BME280;9136;48.822;7.966;2023-02-18T13:24:12;101048.59;;;13.93;100.00
18022;BME280;9136;48.822;7.966;2023-02-18T13:27:07;101001.09;;;13.91;100.00
18022;BME280;9136;48.822;7.966;2023-02-18T13:30:15;101043.13;;;14.74;100.00
18022;BME280;9136;48.822;7.966;2023-02-18T13:33:10;100997.31;;;14.73;100.00
18022;BME280;9136;48.822;7.966;2023-02-18T13:36:07;101026.31;;;14.51;100.00
18022;BME280;9136;48.822;7.966;2023-02-18T13:39:03;100990.28;;;14.49;100.00
18022;BME280;9136;48.822;7.966;2023-02-18T13:42:10;101007.97;;;14.47;100.00
18022;BME280;9136;48.822;7.966;2023-02-18T13:45:22;100981.03;;;14.36;100.00
18022;BME280;9136;48.822;7.966;2023-02-18T13:48:22;101010.00;;;14.64;100.00
18022;BME280;9136;48.822;7.966;2023-02-18T13:51:16;100988.56;;;14.48;99.57
18022;BME280;9136;48.822;7.966;2023-02-18T13:54:15;101012.25;;;14.74;96.71
18022;BME280;9136;48.822;7.966;2023-02-18T13:57:13;100978.63;;;14.54;95.15
18022;BME280;9136;48.822;7.966;2023-02-18T14:00:16;101022.03;;;14.49;95.13
18022;BME280;9136;48.822;7.966;2023-02-18T14:03:27;101002.06;;;14.64;95.11
18022;BME280;9136;48.822;7.966;2023-02-18T14:06:20;100995.41;;;15.00;91.33
18022;BME280;9136;48.822;7.966;2023-02-18T14:09:35;101000.75;;;14.99;87.14
18022;BME280;9136;48.822;7.966;2023-02-18T14:12:36;101013.09;;;14.51;90.76
18022;BME280;9136;48.822;7.966;2023-02-18T14:15:45;100987.88;;;14.66;92.60
18022;BME280;9136;48.822;7.966;2023-02-18T14:18:57;100992.69;;;14.55;93.85
18022;BME280;9136;48.822;7.966;2023-02-18T14:21:47;100998.97;;;14.52;92.41
18022;BME280;9136;48.822;7.966;2023-02-18T14:24:47;100984.06;;;14.73;93.59
18022;BME280;9136;48.822;7.966;2023-02-18T14:27:37;100991.19;;;14.95;92.24
18022;BME280;9136;48.822;7.966;2023-02-18T14:30:29;100985.13;;;14.69;92.42
18022;BME280;9136;48.822;7.966;2023-02-18T14:33:20;100978.19;;;14.42;95.04
18022;BME280;9136;48.822;7.966;2023-02-18T14:36:18;100982.53;;;14.18;97.05
18022;BME280;9136;48.822;7.966;2023-02-18T14:39:26;100993.94;;;14.20;97.30
18022;BME280;9136;48.822;7.966;2023-02-18T14:42:31;100981.22;;;13.80;99.96
18022;BME280;9136;48.822;7.966;2023-02-18T14:45:32;100992.81;;;14.02;100.00
18022;BME280;9136;48.822;7.966;2023-02-18T14:48:41;100972.06;;;13.91;100.00
18022;BME280;9136;48.822;7.966;2023-02-18T14:51:33;100988.16;;;13.57;100.00
18022;BME280;9136;48.822;7.966;2023-02-18T14:54:25;100998.28;;;13.69;100.00
18022;BME280;9136;48.822;7.966;2023-02-18T14:57:16;100978.75;;;13.49;100.00
18022;BME280;9136;48.822;7.966;2023-02-18T15:00:14;100970.69;;;13.53;100.00
18022;BME280;9136;48.822;7.966;2023-02-18T15:03:11;100989.94;;;13.57;100.00
18022;BME280;9136;48.822;7.966;2023-02-18T15:06:00;100973.25;;;13.28;100.00
18022;BME280;9136;48.822;7.966;2023-02-18T15:08:47;100977.84;;;13.22;100.00